Time;durP1;ratioP1;P1;durP2;ratioP2;P2;SDS_P1;SDS_P2;PMS_P1;PMS_P2;Temp;Humidity;BMP_temperature;BMP_pressure;BME280_temperature;BME280_humidity;BME280_pressure;Samples;Min_cycle;Max_cycle;Signal;HPM_P1;HPM_P2
2022/09/14 00:00:01;;;;;;;904.10;847.90;;;;;;;18.32;57.79;99431.75;281561;34;3768;-79
2022/09/14 00:00:12;;;;;;;904.80;848.50;;;;;;;18.32;57.97;99437.03;283918;34;1083;-78
2022/09/14 00:00:24;;;;;;;902.95;846.83;;;;;;;18.32;58.00;99434.41;277424;35;1354;-79
2022/09/14 00:00:35;;;;;;;902.45;846.58;;;;;;;18.33;58.00;99436.09;274716;35;6951;-78
2022/09/14 00:00:45;;;;;;;901.17;845.23;;;;;;;18.33;57.83;99433.44;273925;35;7657;-77
2022/09/14 00:00:56;;;;;;;906.83;850.60;;;;;;;18.32;58.05;99440.53;273846;35;1400;-78
2022/09/14 00:01:11;;;;;;;906.00;849.78;;;;;;;18.29;57.81;99431.00;272126;35;6435;-77
2022/09/14 00:01:23;;;;;;;904.45;848.55;;;;;;;18.28;57.94;99434.63;271558;36;5732;-77
2022/09/14 00:01:35;;;;;;;905.42;849.38;;;;;;;18.26;57.85;99441.84;269770;36;6443;-78
2022/09/14 00:03:30;;;;;;;856.47;802.23;;;;;;;18.27;57.85;99438.22;2495024;27;20493;-78
2022/09/14 00:03:41;;;;;;;928.73;872.00;;;;;;;18.27;58.34;99432.94;350513;28;1356;-78
2022/09/14 00:03:55;;;;;;;927.47;870.85;;;;;;;18.29;58.12;99430.16;346078;28;1220;-77
2022/09/14 00:04:11;;;;;;;923.85;867.42;;;;;;;18.30;57.94;99431.84;346377;28;1401;-77
2022/09/14 00:04:21;;;;;;;925.53;869.17;;;;;;;18.29;57.96;99431.00;345519;28;1319;-77
2022/09/14 00:04:32;;;;;;;926.92;870.58;;;;;;;18.31;58.04;99438.00;345349;28;1371;-77
2022/09/14 00:04:42;;;;;;;929.57;872.90;;;;;;;18.29;58.01;99431.00;348161;28;895;-78
2022/09/14 00:04:53;;;;;;;930.70;873.93;;;;;;;18.30;58.19;99434.50;347563;28;1290;-78
2022/09/14 00:05:03;;;;;;;930.78;874.00;;;;;;;18.31;57.89;99440.66;346770;28;1211;-78
2022/09/14 00:05:14;;;;;;;932.55;875.83;;;;;;;18.31;57.94;99435.34;349741;28;1296;-80
2022/09/14 00:05:24;;;;;;;934.60;877.73;;;;;;;18.32;57.87;99437.03;347775;28;1312;-76
2022/09/14 00:05:35;;;;;;;938.65;881.67;;;;;;;18.34;58.14;99440.41;346373;28;1243;-76
2022/09/14 00:05:45;;;;;;;931.83;875.07;;;;;;;18.32;58.08;99434.41;344142;28;1007;-78
2022/09/14 00:05:56;;;;;;;931.75;875.08;;;;;;;18.33;57.88;99438.72;346208;28;1324;-78
2022/09/14 00:06:09;;;;;;;926.63;870.13;;;;;;;18.29;57.93;99436.31;344593;28;1561;-77
2022/09/14 00:06:20;;;;;;;929.50;872.95;;;;;;;18.28;58.06;99436.44;346754;28;1009;-77
2022/09/14 00:06:30;;;;;;;920.77;864.43;;;;;;;18.26;58.00;99433.91;345157;28;1208;-77
2022/09/14 00:06:41;;;;;;;928.70;872.03;;;;;;;18.25;58.12;99434.84;346638;28;1240;-77
2022/09/14 00:06:51;;;;;;;936.55;879.55;;;;;;;18.25;58.26;99428.72;347281;28;1818;-77
2022/09/14 00:07:02;;;;;;;937.40;880.53;;;;;;;18.24;58.19;99433.16;349517;28;856;-79
2022/09/14 00:07:12;;;;;;;935.55;878.78;;;;;;;18.23;58.12;99431.47;346389;28;1424;-79
2022/09/14 00:07:23;;;;;;;930.17;873.57;;;;;;;18.23;58.32;99433.28;344966;28;1235;-78
2022/09/14 00:07:34;;;;;;;938.00;881.10;;;;;;;18.23;58.11;99431.47;343564;28;1472;-77
2022/09/14 00:07:45;;;;;;;938.28;881.33;;;;;;;18.22;58.31;99431.59;342437;28;1364;-77
2022/09/14 00:07:55;;;;;;;932.33;875.65;;;;;;;18.21;58.35;99436.03;345983;28;1256;-77
2022/09/14 00:08:06;;;;;;;925.00;868.63;;;;;;;18.22;58.21;99429.78;343967;28;1308;-77
2022/09/14 00:08:16;;;;;;;926.25;869.72;;;;;;;18.21;58.29;99428.09;342563;28;1383;-78
2022/09/14 00:08:26;;;;;;;929.50;872.80;;;;;;;18.21;58.32;99433.38;344156;28;1170;-78
2022/09/14 00:08:37;;;;;;;932.42;875.53;;;;;;;18.21;58.12;99440.50;344002;28;900;-78
2022/09/14 00:08:51;;;;;;;929.33;872.57;;;;;;;18.21;58.08;99433.38;342248;28;1287;-79
2022/09/14 00:09:04;;;;;;;922.22;865.78;;;;;;;18.22;58.28;99436.88;340849;28;1468;-79
2022/09/14 00:09:17;;;;;;;924.88;868.40;;;;;;;18.22;58.19;99429.78;343909;28;1319;-79
2022/09/14 00:09:27;;;;;;;933.35;876.47;;;;;;;18.21;58.18;99433.38;344641;28;1423;-78
2022/09/14 00:09:38;;;;;;;930.00;873.22;;;;;;;18.21;58.21;99432.56;343809;28;936;-78
2022/09/14 00:09:50;;;;;;;934.73;877.80;;;;;;;18.21;58.13;99433.38;344188;28;1108;-78
2022/09/14 00:10:01;;;;;;;941.88;884.83;;;;;;;18.22;58.13;99436.88;344187;28;893;-78
2022/09/14 00:10:11;;;;;;;945.53;888.40;;;;;;;18.21;58.10;99435.19;344732;28;1274;-78
2022/09/14 00:10:22;;;;;;;942.70;885.53;;;;;;;18.20;57.96;99436.16;343692;28;1220;-78
2022/09/14 00:10:32;;;;;;;935.90;878.93;;;;;;;18.19;58.27;99435.34;342621;28;833;-78
2022/09/14 00:10:44;;;;;;;932.08;875.22;;;;;;;18.17;58.04;99441.72;340780;28;1128;-78
2022/09/14 00:10:55;;;;;;;936.95;880.00;;;;;;;18.15;58.31;99433.88;340014;28;3551;-78
2022/09/14 00:11:10;;;;;;;941.80;884.63;;;;;;;18.15;58.19;99433.88;338633;29;4187;-78
2022/09/14 00:11:22;;;;;;;936.92;879.85;;;;;;;18.15;58.19;99443.63;338765;29;1755;-78
2022/09/14 00:11:33;;;;;;;934.63;877.53;;;;;;;18.14;58.15;99434.84;338166;29;1865;-78
2022/09/14 00:11:44;;;;;;;932.60;875.40;;;;;;;18.14;58.09;99437.50;339968;29;1103;-78
2022/09/14 00:11:54;;;;;;;931.90;874.67;;;;;;;18.16;58.18;99435.56;338918;28;1414;-78
2022/09/14 00:12:05;;;;;;;931.38;874.22;;;;;;;18.18;58.14;99441.59;338119;28;1636;-78
2022/09/14 00:12:16;;;;;;;932.15;875.15;;;;;;;18.19;58.10;99442.44;333032;29;1943;-78
2022/09/14 00:12:26;;;;;;;927.57;870.83;;;;;;;18.18;58.25;99444.25;336056;29;1443;-77
2022/09/14 00:12:37;;;;;;;929.00;872.38;;;;;;;18.19;58.29;99435.34;338748;28;1333;-77
2022/09/14 00:12:47;;;;;;;926.90;870.30;;;;;;;18.18;57.88;99444.25;338406;29;1211;-78
2022/09/14 00:12:59;;;;;;;930.53;873.77;;;;;;;18.19;58.20;99440.63;337969;29;1353;-78
2022/09/14 00:13:10;;;;;;;924.47;867.78;;;;;;;18.19;58.65;99440.63;337849;29;1517;-78
2022/09/14 00:13:20;;;;;;;927.15;870.38;;;;;;;18.19;58.21;99438.00;334236;29;2069;-78
2022/09/14 00:13:30;;;;;;;927.83;871.10;;;;;;;18.19;58.22;99440.63;332682;29;1064;-78
2022/09/14 00:13:42;;;;;;;932.63;875.77;;;;;;;18.19;58.20;99442.44;332847;29;1897;-78
2022/09/14 00:13:52;;;;;;;927.55;870.97;;;;;;;18.19;58.17;99445.09;334978;29;1571;-78
2022/09/14 00:14:03;;;;;;;926.05;869.50;;;;;;;18.16;58.14;99443.53;330524;29;1313;-78
2022/09/14 00:14:14;;;;;;;919.40;863.07;;;;;;;18.19;58.17;99439.78;330513;29;1775;-78
2022/09/14 00:14:24;;;;;;;925.53;868.90;;;;;;;18.17;58.13;99437.25;330361;29;1400;-78
2022/09/14 00:14:35;;;;;;;924.23;867.63;;;;;;;18.18;58.07;99433.66;325747;30;1658;-79
2022/09/14 00:14:46;;;;;;;929.30;872.63;;;;;;;18.17;58.05;99441.72;324784;30;840;-77
2022/09/14 00:14:56;;;;;;;925.67;869.15;;;;;;;18.17;57.89;99437.25;329172;29;1224;-77
2022/09/14 00:15:07;;;;;;;925.78;869.17;;;;;;;18.16;58.31;99438.22;329883;29;1476;-77
2022/09/14 00:15:17;;;;;;;924.13;867.67;;;;;;;18.17;58.09;99441.72;328666;30;864;-78
2022/09/14 00:15:28;;;;;;;923.95;867.55;;;;;;;18.17;57.96;99439.91;326359;30;2222;-78
2022/09/14 00:15:40;;;;;;;923.72;867.50;;;;;;;18.18;58.07;99443.41;323884;30;2298;-78
2022/09/14 00:15:51;;;;;;;924.13;867.70;;;;;;;18.18;58.13;99438.94;324013;30;2467;-79
2022/09/14 00:16:05;;;;;;;926.20;869.63;;;;;;;18.18;58.04;99438.09;322898;30;1317;-79
2022/09/14 00:16:18;;;;;;;927.53;870.88;;;;;;;18.18;58.19;99444.25;323858;30;1465;-78
2022/09/14 00:16:34;;;;;;;925.78;869.22;;;;;;;18.20;58.11;99447.59;325487;30;2533;-78
2022/09/14 00:16:44;;;;;;;926.17;869.72;;;;;;;18.19;58.11;99438.00;321131;30;1071;-78
2022/09/14 00:16:55;;;;;;;924.37;867.97;;;;;;;18.19;58.13;99440.63;317105;30;1511;-79
2022/09/14 00:17:05;;;;;;;929.90;873.25;;;;;;;18.20;57.91;99439.66;314102;31;1792;-78
2022/09/14 00:17:16;;;;;;;918.27;862.07;;;;;;;18.20;58.05;99442.31;314335;31;1117;-78
2022/09/14 00:17:27;;;;;;;915.55;859.13;;;;;;;18.19;58.32;99438.00;311014;31;2269;-78
2022/09/14 00:17:37;;;;;;;913.00;856.60;;;;;;;18.16;57.86;99437.38;312334;30;2538;-78
2022/09/14 00:17:48;;;;;;;922.93;866.23;;;;;;;18.14;58.31;99439.28;316450;31;1223;-78
2022/09/14 00:17:58;;;;;;;926.50;870.00;;;;;;;18.13;58.30;99434.97;314476;31;3754;-78
2022/09/14 00:18:09;;;;;;;931.60;874.75;;;;;;;18.14;58.33;99437.50;312851;31;4319;-78
2022/09/14 00:18:19;;;;;;;929.85;873.05;;;;;;;18.11;58.60;99436.88;309802;31;2781;-77
2022/09/14 00:18:30;;;;;;;927.63;870.83;;;;;;;18.11;58.41;99437.72;311092;31;1089;-79
2022/09/14 00:18:41;;;;;;;927.60;870.95;;;;;;;18.11;58.57;99439.53;307779;31;3129;-78
2022/09/14 00:18:59;;;;;;;930.67;874.00;;;;;;;18.09;58.30;99439.63;306386;31;2648;-78
2022/09/14 00:19:23;;;;;;;933.17;876.35;;;;;;;18.11;58.66;99442.16;303809;32;2040;-77
2022/09/14 00:19:34;;;;;;;923.17;866.88;;;;;;;18.07;58.38;99446.84;302000;32;1560;-78
2022/09/14 00:19:45;;;;;;;926.67;870.17;;;;;;;18.07;58.42;99438.91;300050;32;1301;-77
2022/09/14 00:19:55;;;;;;;928.67;871.80;;;;;;;18.06;58.47;99437.22;296182;33;3530;-77
2022/09/14 00:20:06;;;;;;;930.10;873.15;;;;;;;18.07;58.30;99446.84;291360;33;6071;-77
2022/09/14 00:20:17;;;;;;;932.20;875.17;;;;;;;18.09;58.57;99446.72;287778;34;3144;-78
2022/09/14 00:20:28;;;;;;;932.87;875.83;;;;;;;18.09;58.41;99439.63;289161;33;6294;-78
2022/09/14 00:20:38;;;;;;;933.85;876.63;;;;;;;18.09;58.55;99439.63;289575;33;4447;-78
2022/09/14 00:20:49;;;;;;;935.58;878.25;;;;;;;18.08;58.50;99447.69;287569;34;3476;-78
2022/09/14 00:21:04;;;;;;;937.83;880.57;;;;;;;18.10;58.15;99443.13;286266;34;1312;-78
2022/09/14 00:21:14;;;;;;;934.10;877.05;;;;;;;18.10;58.48;99446.63;289442;33;4345;-79
2022/09/14 00:21:25;;;;;;;932.95;875.97;;;;;;;18.11;58.45;99453.59;287189;34;2999;-78
2022/09/14 00:21:36;;;;;;;923.67;867.07;;;;;;;18.11;58.49;99442.16;285348;34;3171;-77
2022/09/14 00:21:51;;;;;;;922.40;865.88;;;;;;;18.12;58.50;99446.50;283928;34;1175;-78
2022/09/14 00:22:02;;;;;;;918.92;862.58;;;;;;;18.12;58.32;99442.06;284401;34;1368;-78
2022/09/14 00:22:13;;;;;;;927.15;870.50;;;;;;;18.14;58.29;99441.94;290174;33;5722;-77
2022/09/14 00:22:23;;;;;;;930.30;873.40;;;;;;;18.13;58.69;99441.09;287813;33;8343;-78
2022/09/14 00:22:33;;;;;;;930.95;874.03;;;;;;;18.12;58.68;99442.06;285568;34;1272;-78
2022/09/14 00:22:44;;;;;;;927.13;870.13;;;;;;;18.11;58.64;99443.00;281220;34;8537;-78
2022/09/14 00:22:54;;;;;;;925.55;868.58;;;;;;;18.11;58.57;99445.66;281906;34;7582;-78
2022/09/14 00:23:05;;;;;;;932.00;874.67;;;;;;;18.11;58.69;99443.00;280225;34;5958;-77
2022/09/14 00:23:15;;;;;;;935.63;878.28;;;;;;;18.11;59.02;99443.00;275801;35;820;-78
2022/09/14 00:23:26;;;;;;;938.03;880.77;;;;;;;18.11;58.69;99443.00;277133;35;5581;-77
2022/09/14 00:23:37;;;;;;;932.25;875.40;;;;;;;18.11;58.81;99443.00;277878;35;3803;-77
2022/09/14 00:23:48;;;;;;;930.83;874.03;;;;;;;18.13;58.65;99441.09;274336;35;1490;-77
2022/09/14 00:23:58;;;;;;;929.83;872.95;;;;;;;18.13;58.91;99441.09;269947;36;5199;-77
2022/09/14 00:24:09;;;;;;;936.87;879.53;;;;;;;18.14;58.86;99442.78;267613;36;6433;-77
2022/09/14 00:26:24;;;;;;;843.73;789.67;;;;;;;18.10;60.02;99441.31;2490228;27;20278;-78
2022/09/14 00:26:35;;;;;;;905.88;849.85;;;;;;;18.09;59.91;99455.53;349493;28;1313;-78
2022/09/14 00:26:45;;;;;;;906.77;850.43;;;;;;;18.07;60.03;99446.84;346253;28;1225;-78
2022/09/14 00:26:56;;;;;;;911.43;854.87;;;;;;;18.05;60.02;99443.47;348238;28;1306;-78
2022/09/14 00:27:06;;;;;;;923.65;866.78;;;;;;;18.04;60.00;99447.06;346836;28;1088;-78
2022/09/14 00:27:16;;;;;;;923.97;867.17;;;;;;;18.02;60.38;99443.69;349167;28;1277;-78
2022/09/14 00:27:27;;;;;;;925.80;868.90;;;;;;;18.01;60.33;99447.31;347840;28;1239;-78
2022/09/14 00:27:37;;;;;;;927.15;870.08;;;;;;;18.00;60.27;99445.63;345414;28;1463;-78
2022/09/14 00:27:48;;;;;;;925.57;868.63;;;;;;;18.00;60.53;99450.06;343566;28;1181;-78
2022/09/14 00:27:58;;;;;;;921.20;864.50;;;;;;;17.99;60.31;99448.38;346459;28;1378;-78
2022/09/14 00:28:09;;;;;;;913.57;857.33;;;;;;;18.00;60.28;99444.75;346453;28;1234;-78
2022/09/14 00:28:19;;;;;;;911.83;855.55;;;;;;;17.99;60.17;99446.56;347733;28;1044;-78
2022/09/14 00:28:29;;;;;;;913.87;857.57;;;;;;;18.00;60.22;99456.19;346457;28;1267;-78
2022/09/14 00:28:42;;;;;;;918.15;861.85;;;;;;;18.00;60.13;99445.63;346554;28;1148;-78
2022/09/14 00:28:55;;;;;;;920.55;864.20;;;;;;;18.00;60.07;99450.91;344937;28;1383;-78
2022/09/14 00:29:06;;;;;;;910.65;854.78;;;;;;;17.99;60.15;99449.22;344954;28;1057;-78
2022/09/14 00:29:16;;;;;;;908.10;852.27;;;;;;;17.99;60.35;99449.22;344438;28;3829;-78
2022/09/14 00:29:27;;;;;;;915.28;859.05;;;;;;;17.98;60.21;99451.97;344108;28;4631;-78
2022/09/14 00:29:38;;;;;;;926.55;869.72;;;;;;;17.99;59.96;99453.66;347019;28;1725;-79
2022/09/14 00:29:48;;;;;;;928.73;871.50;;;;;;;17.98;60.27;99446.69;347030;28;1710;-79
2022/09/14 00:29:59;;;;;;;929.53;872.08;;;;;;;17.96;60.55;99444.16;345616;28;3255;-78
2022/09/14 00:30:10;;;;;;;925.07;867.63;;;;;;;17.97;60.12;99445.84;344960;28;1212;-79
2022/09/14 00:30:20;;;;;;;923.55;866.60;;;;;;;17.97;60.23;99451.13;345760;28;1330;-77
2022/09/14 00:30:31;;;;;;;928.28;871.28;;;;;;;17.97;60.58;99439.69;344126;28;1252;-77
2022/09/14 00:30:42;;;;;;;922.75;866.03;;;;;;;17.96;60.20;99444.16;342335;28;1360;-77
2022/09/14 00:30:52;;;;;;;920.72;864.15;;;;;;;17.94;60.23;99436.31;343738;28;1298;-77
2022/09/14 00:31:04;;;;;;;922.37;865.77;;;;;;;17.95;60.39;99447.75;343681;28;1217;-77
2022/09/14 00:31:14;;;;;;;931.15;874.28;;;;;;;17.95;60.59;99448.59;344232;28;1340;-77
2022/09/14 00:31:25;;;;;;;927.88;871.05;;;;;;;17.96;60.67;99444.16;347676;28;1211;-77
2022/09/14 00:31:36;;;;;;;922.25;865.58;;;;;;;17.97;60.34;99450.28;342299;28;1303;-77
2022/09/14 00:31:47;;;;;;;922.92;866.00;;;;;;;17.94;60.60;99441.59;343274;28;990;-77
2022/09/14 00:31:57;;;;;;;922.38;865.53;;;;;;;17.95;60.23;99442.44;343754;28;1048;-78
2022/09/14 00:32:08;;;;;;;921.33;864.57;;;;;;;17.97;60.19;99448.47;345851;28;1122;-78
2022/09/14 00:32:18;;;;;;;916.63;860.15;;;;;;;17.95;60.20;99448.59;348280;28;1217;-78
2022/09/14 00:32:28;;;;;;;918.83;862.33;;;;;;;17.94;60.23;99451.34;345101;28;1369;-77
2022/09/14 00:32:39;;;;;;;918.80;862.33;;;;;;;17.93;60.38;99442.56;343644;28;1327;-78
2022/09/14 00:32:50;;;;;;;923.67;867.03;;;;;;;17.94;60.39;99444.25;344803;28;1401;-77
2022/09/14 00:33:00;;;;;;;925.70;869.05;;;;;;;17.93;60.23;99449.66;340710;28;1241;-79
2022/09/14 00:33:11;;;;;;;933.43;876.53;;;;;;;17.90;60.65;99444.59;341183;28;1254;-78
2022/09/14 00:33:21;;;;;;;938.10;881.08;;;;;;;17.89;60.53;99442.91;341237;28;1412;-78
2022/09/14 00:33:33;;;;;;;938.17;881.13;;;;;;;17.88;60.63;99441.22;339684;28;1216;-78
2022/09/14 00:33:46;;;;;;;933.95;877.03;;;;;;;17.88;60.63;99446.50;339650;28;1508;-78
2022/09/14 00:33:56;;;;;;;926.38;869.80;;;;;;;17.87;60.78;99444.81;340309;28;1444;-78
2022/09/14 00:34:10;;;;;;;924.93;868.50;;;;;;;17.88;60.75;99449.16;338240;29;1443;-78
2022/09/14 00:34:20;;;;;;;924.40;867.92;;;;;;;17.88;60.90;99443.88;339389;29;1672;-78
2022/09/14 00:34:31;;;;;;;920.50;864.05;;;;;;;17.87;60.99;99443.00;341426;28;1268;-78
2022/09/14 00:34:41;;;;;;;922.63;866.00;;;;;;;17.87;60.65;99447.47;341046;28;1292;-78
2022/09/14 00:34:51;;;;;;;920.40;864.05;;;;;;;17.85;60.79;99446.72;336062;29;1298;-78
2022/09/14 00:35:02;;;;;;;931.93;875.10;;;;;;;17.88;60.83;99441.22;338657;28;1911;-78
2022/09/14 00:35:12;;;;;;;931.67;874.83;;;;;;;17.88;61.03;99451.81;340257;29;954;-78
2022/09/14 00:35:23;;;;;;;942.57;885.27;;;;;;;17.87;60.98;99444.81;335891;29;1290;-78
2022/09/14 00:35:35;;;;;;;944.37;886.57;;;;;;;17.88;60.70;99446.50;335937;29;1450;-78
2022/09/14 00:35:45;;;;;;;949.97;891.85;;;;;;;17.88;60.70;99443.88;336401;29;1361;-79
2022/09/14 00:36:02;;;;;;;939.35;881.80;;;;;;;17.87;60.64;99442.16;337292;29;1354;-79
2022/09/14 00:36:20;;;;;;;933.72;876.67;;;;;;;17.87;60.86;99442.16;335690;29;1337;-79
2022/09/14 00:36:31;;;;;;;936.85;879.97;;;;;;;17.85;60.90;99441.44;332898;29;1177;-78
2022/09/14 00:36:46;;;;;;;930.42;873.85;;;;;;;17.85;60.65;99437.00;328441;29;1324;-77
2022/09/14 00:36:56;;;;;;;929.90;873.17;;;;;;;17.87;60.84;99444.81;324590;30;1329;-77
2022/09/14 00:37:07;;;;;;;921.47;865.17;;;;;;;17.87;60.80;99439.53;327573;30;1755;-77
2022/09/14 00:37:17;;;;;;;918.83;862.45;;;;;;;17.87;61.03;99444.81;325680;30;2145;-77
2022/09/14 00:37:27;;;;;;;916.37;859.97;;;;;;;17.87;61.28;99439.53;326709;30;1210;-77
2022/09/14 00:37:38;;;;;;;926.55;869.78;;;;;;;17.85;60.71;99442.28;322965;30;1171;-77
2022/09/14 00:37:50;;;;;;;926.47;869.73;;;;;;;17.86;60.85;99437.84;323023;30;1034;-79
2022/09/14 00:38:00;;;;;;;927.75;870.92;;;;;;;17.86;61.19;99443.13;322341;30;1807;-78
2022/09/14 00:38:10;;;;;;;916.77;860.23;;;;;;;17.84;61.11;99439.75;319551;30;1177;-78
2022/09/14 00:38:21;;;;;;;910.75;854.50;;;;;;;17.83;60.89;99446.00;318076;30;1813;-78
2022/09/14 00:38:31;;;;;;;910.57;854.40;;;;;;;17.82;60.96;99442.50;316228;30;3982;-78
2022/09/14 00:38:42;;;;;;;919.40;862.97;;;;;;;17.82;61.09;99441.66;317562;31;3122;-78
2022/09/14 00:38:56;;;;;;;929.13;872.30;;;;;;;17.81;61.11;99439.97;319593;30;2165;-78
2022/09/14 00:39:07;;;;;;;933.47;876.25;;;;;;;17.81;61.09;99445.25;316308;31;3107;-78
2022/09/14 00:39:19;;;;;;;933.00;875.72;;;;;;;17.82;61.21;99442.50;314221;31;2472;-78
2022/09/14 00:39:29;;;;;;;930.65;873.70;;;;;;;17.81;61.28;99439.97;310980;31;2239;-77
2022/09/14 00:39:40;;;;;;;927.43;870.53;;;;;;;17.81;61.25;99437.31;308347;31;1311;-77
2022/09/14 00:39:51;;;;;;;928.85;871.97;;;;;;;17.81;61.37;99439.97;310197;31;1791;-78
2022/09/14 00:40:03;;;;;;;932.07;875.07;;;;;;;17.80;61.33;99439.13;312129;31;1491;-77
2022/09/14 00:40:13;;;;;;;933.48;876.46;;;;;;;17.81;61.10;99435.53;311585;31;1975;-77
2022/09/14 00:40:24;;;;;;;929.77;872.67;;;;;;;17.81;60.99;99439.97;313098;31;1302;-77
2022/09/14 00:40:35;;;;;;;930.42;873.47;;;;;;;17.79;61.01;99441.88;310560;31;2656;-77
2022/09/14 00:40:55;;;;;;;936.97;879.78;;;;;;;17.79;60.86;99439.25;307018;31;2849;-77
2022/09/14 00:41:09;;;;;;;936.80;879.60;;;;;;;17.79;60.83;99447.19;303519;31;2798;-77
2022/09/14 00:41:24;;;;;;;926.35;869.30;;;;;;;17.77;61.02;99439.34;303453;31;2781;-78
2022/09/14 00:41:37;;;;;;;925.10;868.05;;;;;;;17.76;61.00;99437.66;302330;32;3283;-78
2022/09/14 00:41:47;;;;;;;928.75;871.88;;;;;;;17.75;61.08;99440.44;300945;32;2351;-78
2022/09/14 00:41:58;;;;;;;928.53;871.53;;;;;;;17.75;60.97;99440.44;298740;32;1716;-78
2022/09/14 00:42:09;;;;;;;931.83;874.45;;;;;;;17.75;60.94;99443.09;297227;33;1231;-78
2022/09/14 00:42:19;;;;;;;925.08;867.92;;;;;;;17.74;60.80;99436.97;292713;33;2443;-78
2022/09/14 00:42:30;;;;;;;923.20;866.20;;;;;;;17.73;61.20;99437.06;289543;33;2997;-78
2022/09/14 00:42:40;;;;;;;920.33;863.83;;;;;;;17.74;61.28;99439.59;291752;34;1106;-78
2022/09/14 00:42:51;;;;;;;928.17;871.37;;;;;;;17.74;61.16;99444.06;290144;33;3745;-78
2022/09/14 00:43:01;;;;;;;926.05;868.97;;;;;;;17.74;61.11;99438.75;288336;34;4371;-78
2022/09/14 00:43:13;;;;;;;926.57;869.23;;;;;;;17.73;61.28;99442.38;287437;34;1151;-78
2022/09/14 00:43:24;;;;;;;924.17;866.42;;;;;;;17.72;61.10;99441.50;284378;34;1444;-78
2022/09/14 00:43:57;;;;;;;923.92;865.83;;;;;;;17.76;61.04;99442.13;288305;33;4678;-78
2022/09/14 00:44:10;;;;;;;917.05;860.28;;;;;;;17.77;61.21;99443.78;286849;34;3890;-78
2022/09/14 00:44:23;;;;;;;916.65;860.17;;;;;;;17.76;61.17;99437.66;286761;34;2967;-77
2022/09/14 00:44:33;;;;;;;926.22;869.42;;;;;;;17.78;61.23;99445.50;284959;34;3789;-77
2022/09/14 00:44:46;;;;;;;924.97;868.10;;;;;;;17.78;61.36;99441.03;282799;34;5270;-78
2022/09/14 00:44:59;;;;;;;923.13;866.65;;;;;;;17.79;61.26;99436.59;283765;34;1271;-78
2022/09/14 00:45:14;;;;;;;924.33;867.80;;;;;;;17.75;61.50;99437.81;282096;35;1415;-78
2022/09/14 00:45:26;;;;;;;926.15;869.28;;;;;;;17.72;61.47;99435.38;279590;35;1288;-77
2022/09/14 00:45:36;;;;;;;923.95;866.97;;;;;;;17.71;61.57;99444.28;276014;35;11878;-77
2022/09/14 00:45:47;;;;;;;927.10;870.10;;;;;;;17.69;61.57;99441.75;272254;35;7230;-77
2022/09/14 00:46:00;;;;;;;926.78;869.88;;;;;;;17.70;61.47;99442.59;270290;36;1245;-77
2022/09/14 00:46:10;;;;;;;926.88;870.13;;;;;;;17.70;61.50;99432.84;270870;36;1463;-77
2022/09/14 00:46:21;;;;;;;930.40;873.47;;;;;;;17.70;61.58;99437.28;268849;36;5022;-77
2022/09/14 00:46:43;;;;;;;930.05;873.05;;;;;;;17.72;61.84;99435.38;265306;36;4480;-77
2022/09/14 00:46:55;;;;;;;936.53;879.50;;;;;;;17.72;61.60;99440.66;267918;36;1460;-78
2022/09/14 00:47:06;;;;;;;939.50;882.42;;;;;;;17.72;61.90;99440.66;261423;37;6970;-77
2022/09/14 00:48:49;;;;;;;864.23;809.59;;;;;;;17.68;60.41;99434.75;2486871;27;20895;-78
2022/09/14 00:49:00;;;;;;;933.43;876.77;;;;;;;17.68;60.46;99433.91;350134;28;1203;-78
2022/09/14 00:49:13;;;;;;;926.40;869.65;;;;;;;17.72;60.30;99438.03;347134;28;1267;-78
2022/09/14 00:49:29;;;;;;;925.95;869.17;;;;;;;17.75;60.13;99432.50;346057;28;1390;-80
2022/09/14 00:49:40;;;;;;;928.13;871.38;;;;;;;17.77;59.75;99433.22;347987;28;1324;-78
2022/09/14 00:49:50;;;;;;;931.25;874.45;;;;;;;17.77;59.70;99433.22;346051;28;1433;-78
2022/09/14 00:50:01;;;;;;;931.92;874.80;;;;;;;17.77;59.56;99443.78;347363;28;840;-78
2022/09/14 00:50:12;;;;;;;938.38;881.15;;;;;;;17.77;59.75;99442.00;347087;28;1239;-77
2022/09/14 00:50:22;;;;;;;932.13;875.30;;;;;;;17.78;59.66;99434.91;348469;28;1461;-77
2022/09/14 00:50:33;;;;;;;929.97;873.25;;;;;;;17.79;59.45;99442.72;346192;28;1320;-77
2022/09/14 00:50:43;;;;;;;928.40;871.73;;;;;;;17.80;59.47;99438.28;345967;28;1224;-78
2022/09/14 00:50:54;;;;;;;927.03;870.42;;;;;;;17.80;59.71;99433.84;343045;28;1234;-78
2022/09/14 00:51:04;;;;;;;935.83;878.97;;;;;;;17.81;60.02;99439.97;344536;28;976;-78
2022/09/14 00:51:15;;;;;;;940.28;883.28;;;;;;;17.81;59.37;99440.81;346628;28;1434;-79
2022/09/14 00:51:26;;;;;;;940.03;883.10;;;;;;;17.81;59.59;99434.69;347481;28;1305;-78
2022/09/14 00:51:40;;;;;;;935.35;878.45;;;;;;;17.81;59.68;99439.97;347507;28;1098;-78
2022/09/14 00:52:07;;;;;;;938.28;881.10;;;;;;;17.84;59.05;99439.75;345708;28;973;-78
2022/09/14 00:52:31;;;;;;;929.38;872.95;;;;;;;17.81;59.26;99438.16;345984;28;924;-78
2022/09/14 00:52:43;;;;;;;931.78;875.22;;;;;;;17.78;59.39;99434.91;344635;28;1099;-78
2022/09/14 00:52:55;;;;;;;933.72;876.90;;;;;;;17.77;59.48;99439.34;344442;28;1583;-79
2022/09/14 00:53:06;;;;;;;934.90;877.72;;;;;;;17.76;59.27;99440.31;345950;28;1116;-79
2022/09/14 00:53:16;;;;;;;938.72;881.15;;;;;;;17.77;59.35;99438.50;345067;28;1358;-78
2022/09/14 00:53:27;;;;;;;946.37;888.53;;;;;;;17.75;59.17;99440.44;342351;28;1132;-77
2022/09/14 00:53:37;;;;;;;946.88;889.08;;;;;;;17.77;59.24;99449.09;344607;28;1146;-78
2022/09/14 00:53:48;;;;;;;942.60;885.10;;;;;;;17.76;59.11;99442.94;343390;28;1312;-78
2022/09/14 00:54:02;;;;;;;937.13;879.88;;;;;;;17.75;59.13;99445.75;344365;28;1283;-78
2022/09/14 00:54:12;;;;;;;939.35;881.88;;;;;;;17.75;58.98;99445.75;345416;28;1161;-77
2022/09/14 00:54:23;;;;;;;946.00;888.33;;;;;;;17.77;59.22;99446.44;344285;28;1221;-78
2022/09/14 00:54:38;;;;;;;949.85;891.85;;;;;;;17.78;59.05;99442.84;343230;28;1453;-78
2022/09/14 00:54:51;;;;;;;940.83;883.05;;;;;;;17.77;59.45;99443.78;345951;28;1445;-78
2022/09/14 00:55:05;;;;;;;937.65;879.90;;;;;;;17.77;59.27;99447.28;344687;28;906;-77
2022/09/14 00:55:17;;;;;;;942.53;884.85;;;;;;;17.76;59.44;99447.44;342580;28;1409;-77
2022/09/14 00:55:31;;;;;;;945.83;888.25;;;;;;;17.76;59.51;99448.25;340511;28;1513;-79
2022/09/14 00:55:42;;;;;;;943.28;886.00;;;;;;;17.75;59.63;99445.75;339612;29;1396;-78
2022/09/14 00:55:53;;;;;;;946.23;889.10;;;;;;;17.76;59.61;99447.44;338516;29;1051;-78
2022/09/14 00:56:03;;;;;;;945.95;888.72;;;;;;;17.76;59.37;99447.44;338068;29;1122;-78
2022/09/14 00:56:13;;;;;;;944.90;887.60;;;;;;;17.76;59.32;99444.78;338683;29;1346;-78
2022/09/14 00:56:24;;;;;;;938.67;881.45;;;;;;;17.76;59.43;99442.94;341605;28;1478;-78
2022/09/14 00:56:34;;;;;;;937.88;880.85;;;;;;;17.77;59.68;99449.09;336562;29;1226;-78
2022/09/14 00:56:46;;;;;;;937.23;880.27;;;;;;;17.78;59.40;99448.97;338149;28;1211;-78
2022/09/14 00:56:58;;;;;;;933.80;877.08;;;;;;;17.78;59.49;99443.69;340871;28;5242;-78
2022/09/14 00:57:08;;;;;;;933.42;876.67;;;;;;;17.81;59.07;99454.06;340331;28;3197;-78
2022/09/14 00:57:19;;;;;;;939.83;882.55;;;;;;;17.80;59.40;99447.06;336507;29;1738;-78
2022/09/14 00:57:32;;;;;;;944.97;887.53;;;;;;;17.82;59.09;99449.59;336410;29;3142;-79
2022/09/14 00:57:45;;;;;;;943.88;886.47;;;;;;;17.81;59.08;99447.91;334951;29;1970;-78
2022/09/14 00:57:56;;;;;;;937.35;880.35;;;;;;;17.80;59.13;99443.56;336943;29;1349;-78
2022/09/14 00:58:07;;;;;;;933.72;876.80;;;;;;;17.80;59.04;99449.72;336608;29;1076;-78
2022/09/14 00:58:17;;;;;;;935.87;878.93;;;;;;;17.79;59.06;99453.31;337881;29;1397;-78